Terminal Aerodrome Forecast
Issued by NWS

Home | Current Version | Previous Version | Text Only | Print | Product List | Glossary Off
Versions: 1 2 3 4 5 6 7 8 9 10 11 12 13 14 15 16 17

726
FTUS43 KICT 240520
TAFHUT
TAF
KHUT 240520Z 2406/2506 15010KT P6SM SCT250
     FM241400 17012G18KT P6SM VCSH SCT040 BKN080
     FM241800 17014KT P6SM -RA BKN040
     FM250000 15010KT P6SM -TSRA BKN040CB=

USA.gov is the U.S. government's official web portal to all federal, state and local government web resources and services.